Time;durP1;ratioP1;P1;durP2;ratioP2;P2;SDS_P1;SDS_P2;PMS_P1;PMS_P2;Temp;Humidity;BMP_temperature;BMP_pressure;BME280_temperature;BME280_humidity;BME280_pressure;Samples;Min_cycle;Max_cycle;Signal;HPM_P1;HPM_P2
2021/09/01 00:00:52;;;;;;;5.25;2.90;;;23.20;61.90;;;;;;5051629;28;20119;-50
2021/09/01 00:03:18;;;;;;;4.13;2.72;;;23.20;61.90;;;;;;5051185;28;20382;-51
2021/09/01 00:05:43;;;;;;;4.30;2.90;;;23.20;61.90;;;;;;5051341;28;20075;-52
2021/09/01 00:08:09;;;;;;;4.03;3.05;;;23.20;61.90;;;;;;5050401;28;20064;-52
2021/09/01 00:10:35;;;;;;;3.15;2.70;;;23.20;61.80;;;;;;5051046;28;20107;-49
2021/09/01 00:13:02;;;;;;;3.92;2.72;;;23.20;61.80;;;;;;5051180;28;20363;-52
2021/09/01 00:15:27;;;;;;;3.20;2.80;;;23.10;61.80;;;;;;5050047;28;20462;-51
2021/09/01 00:17:53;;;;;;;3.67;2.85;;;23.10;61.80;;;;;;5051623;28;20033;-49
2021/09/01 00:20:19;;;;;;;4.40;2.83;;;23.10;61.80;;;;;;5050025;28;20057;-49
2021/09/01 00:22:44;;;;;;;3.65;2.90;;;23.10;61.70;;;;;;5050374;28;20480;-49
2021/09/01 00:25:11;;;;;;;3.13;2.58;;;23.10;61.70;;;;;;5050662;28;20021;-49
2021/09/01 00:27:37;;;;;;;5.20;2.72;;;23.10;61.70;;;;;;5050965;28;20036;-49
2021/09/01 00:30:04;;;;;;;4.47;3.22;;;23.10;61.70;;;;;;5050839;28;20033;-49
2021/09/01 00:32:30;;;;;;;5.13;3.10;;;23.10;61.70;;;;;;5050578;28;20082;-49
2021/09/01 00:34:55;;;;;;;3.15;2.85;;;23.10;61.70;;;;;;5051161;28;20139;-50
2021/09/01 00:37:21;;;;;;;4.80;3.03;;;23.10;61.70;;;;;;5050520;28;20036;-49
2021/09/01 00:39:47;;;;;;;3.97;3.35;;;23.10;61.70;;;;;;5054483;28;20029;-49
2021/09/01 00:42:12;;;;;;;3.83;2.80;;;23.10;61.70;;;;;;5054471;28;20146;-52
2021/09/01 00:44:40;;;;;;;3.58;2.78;;;23.10;61.70;;;;;;5054962;28;20106;-48
2021/09/01 00:47:06;;;;;;;3.90;3.30;;;23.10;61.70;;;;;;5054603;28;20453;-51
2021/09/01 00:49:33;;;;;;;3.42;2.88;;;23.10;61.70;;;;;;5054429;28;20485;-49
2021/09/01 00:52:00;;;;;;;4.13;2.95;;;23.10;61.70;;;;;;5055124;28;20029;-49
2021/09/01 00:54:29;;;;;;;3.95;2.65;;;23.10;61.70;;;;;;5051452;28;20055;-51
2021/09/01 00:57:04;;;;;;;3.45;2.92;;;23.10;61.70;;;;;;5054422;28;20036;-50
2021/09/01 00:59:32;;;;;;;4.03;2.83;;;23.10;61.60;;;;;;5052763;28;20041;-50
2021/09/01 01:01:59;;;;;;;3.78;2.88;;;23.10;61.60;;;;;;5054598;28;20041;-48
2021/09/01 01:04:29;;;;;;;3.40;2.95;;;23.10;61.60;;;;;;5053656;28;20033;-53
2021/09/01 01:07:03;;;;;;;4.10;3.13;;;23.10;61.60;;;;;;5055005;28;20115;-50
2021/09/01 01:09:29;;;;;;;3.63;2.85;;;23.10;61.60;;;;;;5053715;28;20864;-52
2021/09/01 01:12:04;;;;;;;3.47;3.17;;;23.10;61.60;;;;;;5054406;28;20032;-50
2021/09/01 01:14:38;;;;;;;4.15;2.97;;;23.10;61.50;;;;;;5053857;28;20025;-50
2021/09/01 01:17:06;;;;;;;5.47;2.60;;;23.10;61.50;;;;;;5054281;28;20504;-49
2021/09/01 01:19:34;;;;;;;3.45;2.85;;;23.10;61.50;;;;;;5054455;28;20114;-50
2021/09/01 01:21:59;;;;;;;4.43;2.88;;;23.00;61.50;;;;;;5054011;28;20462;-50
2021/09/01 01:25:01;;;;;;;3.00;2.70;;;23.00;62.10;;;;;;5053282;28;20036;-53
2021/09/01 01:27:33;;;;;;;3.47;2.83;;;23.10;61.50;;;;;;5053414;28;20726;-52
2021/09/01 01:30:19;;;;;;;3.78;2.97;;;23.00;61.50;;;;;;5054304;28;20025;-51
2021/09/01 01:32:51;;;;;;;3.60;2.97;;;23.00;61.50;;;;;;5053952;28;20029;-50
2021/09/01 01:35:28;;;;;;;3.78;2.65;;;23.00;61.40;;;;;;5053566;28;20112;-51
2021/09/01 01:37:55;;;;;;;3.65;2.95;;;23.00;61.40;;;;;;5054713;28;20042;-50
2021/09/01 01:40:22;;;;;;;3.72;3.05;;;23.00;61.40;;;;;;5053850;28;20021;-51
2021/09/01 01:42:49;;;;;;;3.05;2.63;;;23.00;61.40;;;;;;5054376;28;20369;-50
2021/09/01 01:45:15;;;;;;;4.00;2.92;;;23.00;61.40;;;;;;5052948;28;20029;-49
2021/09/01 01:47:41;;;;;;;3.53;2.85;;;23.00;61.30;;;;;;5053672;28;20124;-49
2021/09/01 01:50:07;;;;;;;3.40;2.88;;;23.00;61.30;;;;;;5053310;28;20107;-53
2021/09/01 01:52:33;;;;;;;3.92;2.67;;;23.00;61.40;;;;;;5051807;28;20090;-51
2021/09/01 01:54:59;;;;;;;4.25;3.30;;;23.00;61.30;;;;;;5053784;28;20025;-50
2021/09/01 01:57:25;;;;;;;3.38;2.58;;;23.00;61.30;;;;;;5052000;28;20033;-52
2021/09/01 01:59:50;;;;;;;4.65;3.10;;;23.00;61.40;;;;;;5053232;28;20409;-53
2021/09/01 02:02:16;;;;;;;3.50;2.88;;;23.00;61.20;;;;;;5052831;28;20466;-50
2021/09/01 02:04:42;;;;;;;4.10;3.30;;;23.00;61.30;;;;;;5053603;28;20033;-50
2021/09/01 02:07:07;;;;;;;3.75;2.75;;;23.00;61.30;;;;;;5053131;28;20074;-50
2021/09/01 02:09:33;;;;;;;3.13;2.50;;;22.90;61.30;;;;;;5053015;28;20033;-49
2021/09/01 02:11:58;;;;;;;3.60;2.88;;;23.00;61.30;;;;;;5053655;28;20032;-48
2021/09/01 02:14:24;;;;;;;3.00;2.65;;;23.00;61.30;;;;;;5052690;28;20036;-48
2021/09/01 02:16:50;;;;;;;3.45;2.70;;;23.00;61.20;;;;;;5053171;28;20036;-50
2021/09/01 02:19:15;;;;;;;3.88;2.70;;;23.00;61.30;;;;;;5052581;28;20033;-49
2021/09/01 02:21:41;;;;;;;3.20;2.80;;;23.00;61.30;;;;;;5052255;28;20371;-51
2021/09/01 02:24:07;;;;;;;4.35;2.60;;;23.00;61.20;;;;;;5053015;28;20029;-53
2021/09/01 02:26:33;;;;;;;3.78;2.78;;;23.00;61.20;;;;;;5052770;28;20074;-50
2021/09/01 02:28:59;;;;;;;4.53;2.97;;;23.00;61.20;;;;;;5053055;28;20111;-49
2021/09/01 02:31:25;;;;;;;3.40;2.90;;;22.90;61.10;;;;;;5052082;28;20033;-49
2021/09/01 02:33:51;;;;;;;3.65;2.90;;;23.00;61.20;;;;;;5052895;28;20036;-50
2021/09/01 02:36:17;;;;;;;3.10;2.75;;;23.00;61.10;;;;;;5052338;28;20036;-53
2021/09/01 02:38:44;;;;;;;2.70;2.42;;;23.00;61.10;;;;;;5052743;28;20463;-50
2021/09/01 02:41:11;;;;;;;3.22;2.53;;;22.90;61.20;;;;;;5044609;28;20029;-49
2021/09/01 02:43:37;;;;;;;3.42;3.10;;;22.90;61.00;;;;;;5052607;28;20033;-49
2021/09/01 02:46:03;;;;;;;3.47;3.00;;;22.90;61.00;;;;;;5051875;28;20029;-49
2021/09/01 02:48:29;;;;;;;5.20;3.33;;;22.90;61.10;;;;;;5051701;28;20553;-50
2021/09/01 02:50:55;;;;;;;3.72;2.95;;;22.90;61.10;;;;;;5052544;28;20521;-49
2021/09/01 02:53:21;;;;;;;4.00;2.70;;;22.90;61.00;;;;;;5051274;28;20025;-51
2021/09/01 02:55:47;;;;;;;3.65;2.47;;;22.90;60.90;;;;;;5052322;28;20029;-50
2021/09/01 02:58:12;;;;;;;4.95;3.25;;;22.90;60.90;;;;;;5051671;28;20059;-50
2021/09/01 03:00:38;;;;;;;2.75;2.42;;;23.00;61.00;;;;;;5051952;28;20397;-53
2021/09/01 03:03:04;;;;;;;4.40;3.17;;;22.90;60.90;;;;;;5052310;28;20041;-52
2021/09/01 03:05:30;;;;;;;3.20;2.75;;;22.90;60.90;;;;;;5051908;28;20025;-50
2021/09/01 03:07:55;;;;;;;3.13;2.65;;;22.90;60.90;;;;;;5050712;28;20043;-52
2021/09/01 03:10:21;;;;;;;3.70;2.88;;;22.90;60.90;;;;;;5050073;28;20077;-50
2021/09/01 03:12:47;;;;;;;3.40;2.50;;;22.90;60.80;;;;;;5051333;28;20033;-49
2021/09/01 03:15:12;;;;;;;4.05;2.47;;;22.90;60.90;;;;;;5050031;28;20029;-49
2021/09/01 03:17:38;;;;;;;3.47;2.80;;;22.90;60.90;;;;;;5051906;28;20481;-52
2021/09/01 03:20:04;;;;;;;3.35;2.70;;;22.90;60.90;;;;;;5052321;28;20378;-51
2021/09/01 03:22:30;;;;;;;3.53;2.92;;;22.90;60.90;;;;;;5051204;28;20025;-51
2021/09/01 03:24:56;;;;;;;4.65;2.85;;;22.90;60.90;;;;;;5051987;28;20155;-52
2021/09/01 03:27:21;;;;;;;3.33;2.95;;;22.90;61.00;;;;;;5051236;28;20466;-51
2021/09/01 03:29:47;;;;;;;2.90;2.47;;;22.90;60.90;;;;;;5052058;28;20444;-51
2021/09/01 03:32:13;;;;;;;3.45;2.63;;;22.90;60.80;;;;;;5051240;28;20032;-49
2021/09/01 03:34:38;;;;;;;4.32;2.78;;;22.90;60.80;;;;;;5051947;28;20040;-50
2021/09/01 03:37:04;;;;;;;4.05;3.00;;;22.90;60.70;;;;;;5052340;28;20386;-52
2021/09/01 03:39:30;;;;;;;3.05;2.72;;;22.90;60.80;;;;;;5048688;28;20020;-49
2021/09/01 03:41:55;;;;;;;3.03;2.58;;;22.90;60.80;;;;;;5051806;28;20464;-49
2021/09/01 03:44:21;;;;;;;3.33;2.53;;;22.90;60.70;;;;;;5051150;28;20037;-48
2021/09/01 03:46:47;;;;;;;2.92;2.55;;;22.90;60.80;;;;;;5051550;28;20056;-51
2021/09/01 03:49:18;;;;;;;3.30;2.65;;;22.90;60.70;;;;;;5050840;28;20065;-52
2021/09/01 03:51:47;;;;;;;2.90;2.60;;;22.90;60.70;;;;;;5051882;28;20036;-51
2021/09/01 03:54:13;;;;;;;2.67;2.28;;;22.90;60.70;;;;;;5050928;28;20040;-50
2021/09/01 03:56:39;;;;;;;3.53;2.55;;;22.90;60.70;;;;;;5051446;28;20112;-52
2021/09/01 03:59:06;;;;;;;5.60;2.85;;;22.90;60.70;;;;;;5051166;28;20108;-52
2021/09/01 04:01:32;;;;;;;5.07;2.95;;;23.00;60.70;;;;;;5051304;28;20051;-49
2021/09/01 04:04:02;;;;;;;14.60;3.35;;;22.90;60.70;;;;;;5051118;28;20029;-50
2021/09/01 04:06:28;;;;;;;3.05;2.55;;;22.90;60.70;;;;;;5051071;28;20047;-49
2021/09/01 04:08:54;;;;;;;3.08;2.75;;;22.90;60.70;;;;;;5051232;28;20033;-50
2021/09/01 04:11:19;;;;;;;3.60;2.70;;;22.90;60.60;;;;;;5049815;28;20402;-50
2021/09/01 04:13:45;;;;;;;3.33;2.75;;;22.90;60.60;;;;;;5050993;28;20100;-51
2021/09/01 04:16:11;;;;;;;4.05;2.85;;;22.90;60.70;;;;;;5051037;28;20036;-50
2021/09/01 04:18:36;;;;;;;3.08;2.30;;;22.90;60.70;;;;;;5050524;28;20036;-49
2021/09/01 04:21:02;;;;;;;2.90;2.58;;;22.90;60.60;;;;;;5051151;28;20071;-49
2021/09/01 04:23:29;;;;;;;2.60;2.40;;;22.90;60.70;;;;;;5049427;28;20094;-49
2021/09/01 04:25:55;;;;;;;2.88;2.58;;;22.90;60.70;;;;;;5050852;28;20033;-49
2021/09/01 04:28:21;;;;;;;2.97;2.55;;;22.90;60.60;;;;;;5050359;28;20059;-50
2021/09/01 04:30:46;;;;;;;3.30;2.80;;;22.90;60.50;;;;;;5050826;28;20033;-50
2021/09/01 04:33:12;;;;;;;3.13;2.80;;;22.90;60.60;;;;;;5050487;28;20070;-50
2021/09/01 04:35:38;;;;;;;3.45;2.78;;;22.90;60.60;;;;;;5050458;28;20024;-52
2021/09/01 04:38:04;;;;;;;4.25;2.67;;;22.90;60.70;;;;;;5050896;28;20040;-50
2021/09/01 04:40:30;;;;;;;3.55;2.72;;;22.90;60.60;;;;;;5047316;28;20029;-50
2021/09/01 04:42:55;;;;;;;3.17;2.75;;;22.90;60.50;;;;;;5051270;28;20029;-50
2021/09/01 04:45:21;;;;;;;3.70;2.72;;;22.90;60.60;;;;;;5065905;28;20111;-49
2021/09/01 04:47:47;;;;;;;3.92;2.65;;;22.90;60.50;;;;;;5069378;28;20371;-51
2021/09/01 04:50:13;;;;;;;3.70;2.75;;;22.90;60.60;;;;;;5054041;28;20059;-50
2021/09/01 04:52:39;;;;;;;3.85;2.75;;;22.90;60.60;;;;;;5050775;28;20025;-48
2021/09/01 04:55:06;;;;;;;3.30;2.75;;;22.90;60.60;;;;;;5050800;28;20021;-49
2021/09/01 04:57:31;;;;;;;3.50;2.70;;;22.90;60.60;;;;;;5050123;28;20037;-50
2021/09/01 04:59:57;;;;;;;3.90;2.63;;;22.90;60.60;;;;;;5050987;28;20443;-48
2021/09/01 05:02:23;;;;;;;3.20;2.65;;;22.90;60.50;;;;;;5050165;28;20087;-48
2021/09/01 05:04:48;;;;;;;3.17;2.58;;;22.90;60.60;;;;;;5050687;28;20036;-49
2021/09/01 05:07:14;;;;;;;3.97;2.63;;;22.90;60.50;;;;;;5050643;28;20025;-50
2021/09/01 05:09:40;;;;;;;2.95;2.55;;;22.90;60.50;;;;;;5049811;28;20076;-49
2021/09/01 05:12:06;;;;;;;3.85;2.85;;;22.90;60.50;;;;;;5050486;28;20027;-49
2021/09/01 05:14:32;;;;;;;3.60;2.92;;;22.90;60.60;;;;;;5050093;28;20025;-48
2021/09/01 05:16:57;;;;;;;3.17;2.70;;;22.90;60.60;;;;;;5050732;28;20489;-49
2021/09/01 05:19:24;;;;;;;3.08;2.60;;;22.80;60.50;;;;;;5048525;28;20064;-49
2021/09/01 05:21:55;;;;;;;3.13;2.70;;;22.80;60.60;;;;;;5050201;28;20040;-49
2021/09/01 05:24:57;;;;;;;4.07;2.83;;;22.90;60.60;;;;;;5053273;28;20212;-49
2021/09/01 05:27:23;;;;;;;3.22;2.38;;;22.90;60.50;;;;;;5031943;28;20094;-51
2021/09/01 05:29:50;;;;;;;3.63;2.97;;;22.90;60.50;;;;;;5054146;28;20394;-48
2021/09/01 05:32:23;;;;;;;3.97;2.70;;;22.90;60.60;;;;;;5053690;28;20083;-51
2021/09/01 05:34:50;;;;;;;3.05;2.55;;;22.90;60.60;;;;;;5054183;28;20417;-49
2021/09/01 05:37:16;;;;;;;3.08;2.70;;;22.90;60.60;;;;;;5053882;28;20044;-52
2021/09/01 05:39:44;;;;;;;2.75;2.55;;;22.90;60.60;;;;;;5054164;28;20035;-49
2021/09/01 05:42:16;;;;;;;3.40;2.70;;;22.80;60.50;;;;;;5053080;28;20025;-50
2021/09/01 05:44:42;;;;;;;2.83;2.53;;;22.90;60.60;;;;;;5053431;28;20070;-50
2021/09/01 05:47:09;;;;;;;3.10;2.65;;;22.90;60.60;;;;;;5052728;28;20029;-49
2021/09/01 05:49:36;;;;;;;3.42;2.65;;;22.90;60.60;;;;;;5053014;28;20029;-53
2021/09/01 05:52:03;;;;;;;2.97;2.38;;;22.80;60.50;;;;;;5053596;28;20158;-49
2021/09/01 05:54:29;;;;;;;4.30;2.88;;;22.90;60.80;;;;;;5053300;28;20025;-51
2021/09/01 05:57:04;;;;;;;3.58;2.72;;;22.80;60.60;;;;;;5053751;28;20066;-49
2021/09/01 05:59:31;;;;;;;3.58;2.75;;;22.90;60.60;;;;;;5052726;28;20047;-49
2021/09/01 06:02:03;;;;;;;3.30;2.80;;;22.90;60.70;;;;;;5053724;28;20029;-52
2021/09/01 06:04:37;;;;;;;5.95;2.60;;;22.90;61.30;;;;;;5053163;28;20029;-48
2021/09/01 06:07:08;;;;;;;3.85;2.65;;;22.90;61.20;;;;;;5053085;28;20064;-52
2021/09/01 06:09:34;;;;;;;4.82;2.97;;;22.90;61.30;;;;;;5052583;28;20029;-46
2021/09/01 06:12:03;;;;;;;5.18;3.08;;;23.00;61.60;;;;;;5051182;28;20037;-48
2021/09/01 06:14:29;;;;;;;5.22;2.35;;;23.00;61.80;;;;;;5052990;28;20025;-52
2021/09/01 06:16:56;;;;;;;8.35;3.30;;;23.00;61.80;;;;;;5053768;28;20119;-50
2021/09/01 06:19:21;;;;;;;8.48;3.00;;;23.00;62.10;;;;;;5049494;28;20086;-48
2021/09/01 06:21:47;;;;;;;4.88;2.75;;;23.00;62.80;;;;;;5052967;28;20029;-48
2021/09/01 06:24:13;;;;;;;10.50;3.50;;;23.00;62.30;;;;;;5053304;28;20032;-50
2021/09/01 06:26:38;;;;;;;6.47;3.08;;;23.10;62.50;;;;;;5052064;28;20124;-48
2021/09/01 06:29:04;;;;;;;5.68;2.92;;;23.10;62.40;;;;;;5051686;28;20037;-46
2021/09/01 06:31:35;;;;;;;4.38;2.90;;;23.10;62.50;;;;;;5051618;28;20383;-50
2021/09/01 06:34:01;;;;;;;4.93;2.75;;;23.10;62.50;;;;;;5053353;28;20036;-51
2021/09/01 06:36:27;;;;;;;6.38;2.92;;;23.10;62.50;;;;;;5048020;28;20029;-51
2021/09/01 06:38:52;;;;;;;8.38;3.42;;;23.10;62.90;;;;;;5040608;28;20490;-51
2021/09/01 06:41:18;;;;;;;9.48;3.22;;;23.10;63.10;;;;;;5050056;28;20054;-54
2021/09/01 06:43:44;;;;;;;5.50;3.08;;;23.00;63.00;;;;;;5053055;28;20032;-50
2021/09/01 06:46:09;;;;;;;6.72;2.90;;;23.00;63.10;;;;;;5052300;28;20037;-48
2021/09/01 06:48:35;;;;;;;10.68;3.50;;;23.00;63.10;;;;;;5051816;28;20033;-49
2021/09/01 06:51:00;;;;;;;11.20;3.00;;;23.00;63.20;;;;;;5052889;28;20052;-49
2021/09/01 06:53:26;;;;;;;9.32;3.58;;;22.90;63.20;;;;;;5051580;28;20061;-51
2021/09/01 06:55:52;;;;;;;7.55;3.72;;;22.90;63.50;;;;;;5053054;28;20478;-51
2021/09/01 06:58:19;;;;;;;5.82;3.13;;;23.00;63.50;;;;;;5052082;28;20369;-51
2021/09/01 07:00:45;;;;;;;6.68;3.00;;;23.00;63.30;;;;;;5050861;28;20045;-51
2021/09/01 07:03:11;;;;;;;9.50;3.05;;;22.90;63.30;;;;;;5052825;28;20041;-50
2021/09/01 07:05:37;;;;;;;6.90;3.38;;;22.90;63.40;;;;;;5049991;28;20211;-49
2021/09/01 07:08:17;;;;;;;5.90;3.03;;;22.90;63.30;;;;;;5054343;28;20079;-50
2021/09/01 07:10:44;;;;;;;10.43;4.00;;;22.90;63.30;;;;;;5051947;28;20029;-51
2021/09/01 07:13:11;;;;;;;7.13;2.90;;;22.90;63.30;;;;;;5052219;28;20033;-53
2021/09/01 07:15:37;;;;;;;5.07;2.95;;;22.90;63.30;;;;;;5043063;28;20029;-48
2021/09/01 07:18:03;;;;;;;7.47;2.78;;;22.90;63.30;;;;;;5052265;28;20423;-50
2021/09/01 07:20:29;;;;;;;6.65;3.13;;;22.90;63.30;;;;;;5051179;28;20032;-54
2021/09/01 07:22:54;;;;;;;6.00;3.08;;;23.00;63.40;;;;;;5051923;28;20444;-51
2021/09/01 07:25:20;;;;;;;9.98;4.03;;;22.90;63.30;;;;;;5050751;28;20048;-52
2021/09/01 07:27:46;;;;;;;5.72;3.00;;;22.90;63.30;;;;;;5051400;28;20111;-52
2021/09/01 07:30:12;;;;;;;4.30;3.30;;;22.90;63.30;;;;;;5051398;28;20076;-49
2021/09/01 07:32:38;;;;;;;4.45;2.50;;;22.90;63.30;;;;;;5050922;28;20044;-49
2021/09/01 07:35:04;;;;;;;5.40;3.20;;;22.90;63.30;;;;;;5051840;28;20037;-50
2021/09/01 07:37:29;;;;;;;4.03;2.60;;;22.90;63.40;;;;;;5047144;28;20058;-50
2021/09/01 07:39:55;;;;;;;5.47;3.20;;;22.90;63.30;;;;;;5053717;28;20025;-48
2021/09/01 07:42:21;;;;;;;6.65;3.63;;;22.90;63.30;;;;;;5051120;28;20056;-52
2021/09/01 07:44:46;;;;;;;3.95;2.75;;;22.90;63.40;;;;;;5051907;28;20596;-50
2021/09/01 07:47:12;;;;;;;5.35;3.30;;;22.90;63.30;;;;;;5051726;28;20033;-50
2021/09/01 07:49:38;;;;;;;5.38;3.75;;;22.90;63.30;;;;;;5050811;28;20044;-49
2021/09/01 07:52:04;;;;;;;5.10;2.97;;;22.90;63.30;;;;;;5051765;28;20029;-54
2021/09/01 07:54:30;;;;;;;4.15;3.05;;;22.90;63.40;;;;;;5050428;28;20029;-49
2021/09/01 07:56:56;;;;;;;5.88;3.40;;;22.90;63.50;;;;;;5051623;28;20089;-52
2021/09/01 07:59:22;;;;;;;5.45;2.90;;;22.90;63.40;;;;;;5050577;28;20029;-52
2021/09/01 08:01:47;;;;;;;4.68;2.97;;;22.90;63.50;;;;;;5031563;28;20033;-49
2021/09/01 08:04:14;;;;;;;4.47;2.80;;;22.90;63.50;;;;;;5050576;28;20036;-49
2021/09/01 08:06:40;;;;;;;4.38;3.13;;;22.90;63.40;;;;;;5036433;28;20215;-50
2021/09/01 08:09:06;;;;;;;4.68;3.30;;;22.90;63.30;;;;;;5033157;28;20038;-49
2021/09/01 08:11:32;;;;;;;4.13;3.30;;;22.90;63.30;;;;;;5031173;28;20025;-49
2021/09/01 08:13:57;;;;;;;7.53;3.85;;;22.90;63.30;;;;;;5031572;28;20356;-48
2021/09/01 08:16:23;;;;;;;6.88;3.90;;;22.90;63.00;;;;;;5030467;28;20386;-51
2021/09/01 08:18:48;;;;;;;3.78;2.92;;;22.90;62.50;;;;;;5031766;28;20075;-49
2021/09/01 08:21:14;;;;;;;7.28;2.95;;;22.90;63.10;;;;;;5031586;28;20025;-50
2021/09/01 08:23:40;;;;;;;6.10;3.08;;;22.90;63.20;;;;;;5030400;28;20026;-51
2021/09/01 08:26:06;;;;;;;5.63;3.05;;;22.80;63.10;;;;;;5031485;28;20459;-50
2021/09/01 08:28:32;;;;;;;4.70;2.97;;;22.80;63.10;;;;;;5030623;28;20395;-54
2021/09/01 08:30:58;;;;;;;4.15;2.70;;;22.80;63.10;;;;;;5031324;28;20121;-52
2021/09/01 08:33:23;;;;;;;4.90;3.10;;;22.90;63.00;;;;;;5030472;28;20029;-51
2021/09/01 08:35:49;;;;;;;5.47;3.10;;;22.90;63.00;;;;;;5031181;28;20517;-50
2021/09/01 08:38:14;;;;;;;3.53;2.67;;;22.90;63.00;;;;;;5032144;28;20029;-53
2021/09/01 08:40:40;;;;;;;4.07;2.92;;;22.90;63.00;;;;;;5030303;28;20025;-50
2021/09/01 08:43:07;;;;;;;5.72;3.03;;;22.90;63.10;;;;;;5030182;28;20023;-50
2021/09/01 08:45:33;;;;;;;6.88;3.10;;;22.90;63.10;;;;;;5029890;28;20021;-50
2021/09/01 08:48:00;;;;;;;9.20;3.22;;;22.90;63.10;;;;;;5031028;28;20116;-53
2021/09/01 08:50:27;;;;;;;6.93;3.20;;;22.90;63.10;;;;;;5030491;28;20034;-50
2021/09/01 08:52:54;;;;;;;5.43;3.20;;;22.90;63.10;;;;;;5030970;28;20410;-53
2021/09/01 08:55:19;;;;;;;5.88;3.13;;;22.80;63.00;;;;;;5030525;28;20086;-53
2021/09/01 08:57:45;;;;;;;8.27;3.65;;;22.90;63.10;;;;;;5030358;28;20120;-52
2021/09/01 09:00:12;;;;;;;6.78;3.58;;;22.90;63.10;;;;;;5041433;28;20136;-53
2021/09/01 09:02:38;;;;;;;7.45;2.58;;;22.90;63.10;;;;;;5053526;28;20037;-49
2021/09/01 09:05:08;;;;;;;2.80;2.42;;;22.80;63.00;;;;;;5054457;28;20367;-52
2021/09/01 09:07:53;;;;;;;8.85;3.05;;;22.80;63.00;;;;;;5053741;28;20036;-49
2021/09/01 09:10:36;;;;;;;5.20;2.88;;;22.90;63.10;;;;;;5052626;28;20060;-52
2021/09/01 09:13:08;;;;;;;7.28;3.65;;;22.90;63.00;;;;;;5054947;28;20028;-50
2021/09/01 09:15:35;;;;;;;5.65;2.65;;;22.90;63.10;;;;;;5053325;28;20032;-51
2021/09/01 09:18:02;;;;;;;6.07;2.83;;;22.90;63.10;;;;;;5054482;28;20048;-50
2021/09/01 09:20:34;;;;;;;4.88;2.83;;;22.90;63.10;;;;;;5053707;28;20041;-52
2021/09/01 09:23:06;;;;;;;5.53;2.75;;;22.90;63.10;;;;;;5053983;28;20029;-52
2021/09/01 09:25:33;;;;;;;4.40;2.67;;;22.80;63.00;;;;;;5053247;28;20025;-52
2021/09/01 09:28:07;;;;;;;7.82;2.88;;;22.80;63.00;;;;;;5054320;28;20036;-53
2021/09/01 09:30:38;;;;;;;5.90;3.13;;;22.80;63.10;;;;;;5053510;28;20119;-49
2021/09/01 09:33:16;;;;;;;8.15;3.45;;;22.90;63.10;;;;;;5045840;28;20037;-50
2021/09/01 09:36:01;;;;;;;9.07;4.13;;;22.80;63.00;;;;;;5051611;28;20065;-49
2021/09/01 09:38:42;;;;;;;5.05;2.72;;;22.80;63.00;;;;;;5050566;28;20029;-50
2021/09/01 09:41:29;;;;;;;3.42;2.50;;;22.80;63.00;;;;;;5049599;28;20048;-49
2021/09/01 09:44:00;;;;;;;7.20;3.67;;;22.80;63.00;;;;;;5053992;28;20036;-49
2021/09/01 09:46:27;;;;;;;6.63;2.73;;;22.80;63.00;;;;;;5053480;28;20083;-53
2021/09/01 09:49:02;;;;;;;4.00;2.40;;;22.80;63.00;;;;;;5053830;28;20453;-50
2021/09/01 09:51:55;;;;;;;4.93;2.72;;;22.80;62.90;;;;;;5053752;28;20524;-53
2021/09/01 09:54:21;;;;;;;;;;;22.80;62.90;;;;;;5053050;28;20036;-51
2021/09/01 09:56:49;;;;;;;5.57;3.00;;;22.80;62.90;;;;;;5053096;28;19948;-53
2021/09/01 09:59:22;;;;;;;9.25;2.70;;;22.80;62.90;;;;;;5053563;28;20390;-50
2021/09/01 10:01:49;;;;;;;3.58;2.58;;;22.80;62.90;;;;;;5033610;28;20087;-50
2021/09/01 10:04:15;;;;;;;5.40;2.80;;;22.80;62.90;;;;;;5033929;28;20026;-48
2021/09/01 10:06:41;;;;;;;4.20;2.40;;;22.80;62.80;;;;;;5032669;28;20048;-48
2021/09/01 10:09:09;;;;;;;4.85;3.03;;;22.80;62.80;;;;;;5039955;28;20060;-53
2021/09/01 10:11:38;;;;;;;5.32;2.83;;;22.80;62.70;;;;;;5032556;28;20079;-54
2021/09/01 10:14:05;;;;;;;4.13;3.03;;;22.90;62.70;;;;;;5034345;28;20056;-55
2021/09/01 10:16:42;;;;;;;5.43;3.17;;;22.90;62.80;;;;;;5034735;28;20160;-54
2021/09/01 10:19:15;;;;;;;5.00;2.58;;;23.00;62.70;;;;;;5031901;28;20036;-49
2021/09/01 10:21:55;;;;;;;7.15;2.92;;;23.00;62.70;;;;;;5032884;28;20040;-50
2021/09/01 10:24:33;;;;;;;4.10;2.70;;;23.00;62.80;;;;;;5032901;28;20735;-51
2021/09/01 10:27:00;;;;;;;7.28;2.63;;;23.10;62.60;;;;;;5033792;28;20063;-50
2021/09/01 10:29:55;;;;;;;5.63;2.78;;;23.10;62.70;;;;;;5032209;28;20072;-52
2021/09/01 10:32:22;;;;;;;6.03;3.58;;;23.10;62.80;;;;;;5031325;28;20064;-54
2021/09/01 10:34:49;;;;;;;6.68;3.03;;;23.10;62.80;;;;;;5033191;28;20056;-51
2021/09/01 10:37:43;;;;;;;6.50;2.92;;;23.10;62.70;;;;;;5033531;28;20391;-47
2021/09/01 10:40:21;;;;;;;4.60;2.65;;;23.10;63.10;;;;;;5030901;28;20056;-50
2021/09/01 10:42:57;;;;;;;5.13;2.78;;;23.10;63.00;;;;;;5032758;28;20167;-51
2021/09/01 10:45:44;;;;;;;7.28;2.65;;;23.10;63.10;;;;;;5032614;28;20025;-51
2021/09/01 10:48:11;;;;;;;4.72;2.67;;;23.10;63.20;;;;;;5027429;28;20040;-51
2021/09/01 10:50:50;;;;;;;5.18;2.40;;;23.10;63.30;;;;;;5031516;28;20379;-50
2021/09/01 10:53:22;;;;;;;6.10;2.40;;;23.00;63.40;;;;;;5033054;28;20021;-49
2021/09/01 10:56:00;;;;;;;5.63;2.50;;;23.00;63.50;;;;;;5031062;28;20547;-51
2021/09/01 10:58:36;;;;;;;5.32;2.70;;;23.00;63.40;;;;;;5031480;28;20039;-50
2021/09/01 11:01:17;;;;;;;4.63;2.40;;;23.00;63.60;;;;;;5045888;28;20406;-50
2021/09/01 11:03:47;;;;;;;5.03;2.70;;;23.00;63.50;;;;;;5052060;28;20283;-49
2021/09/01 11:06:17;;;;;;;5.72;3.00;;;23.00;63.30;;;;;;5050886;28;20458;-52
2021/09/01 11:09:09;;;;;;;4.32;2.60;;;23.00;63.30;;;;;;5057123;28;20582;-50
2021/09/01 11:11:49;;;;;;;3.55;2.58;;;22.90;63.20;;;;;;5049363;28;20078;-50
2021/09/01 11:14:30;;;;;;;5.18;2.67;;;23.00;63.30;;;;;;5052328;28;20115;-49
2021/09/01 11:16:57;;;;;;;6.43;2.70;;;22.90;63.30;;;;;;5052252;28;20037;-49
2021/09/01 11:19:22;;;;;;;4.68;2.08;;;22.90;63.20;;;;;;5057825;28;20059;-53
2021/09/01 11:21:48;;;;;;;4.75;2.92;;;23.00;63.20;;;;;;5070820;28;20052;-49
2021/09/01 11:24:19;;;;;;;7.70;3.13;;;23.00;63.20;;;;;;5072320;28;20476;-49
2021/09/01 11:26:46;;;;;;;4.68;2.70;;;23.00;63.20;;;;;;5055442;28;20074;-53
2021/09/01 11:29:12;;;;;;;3.95;2.63;;;23.00;63.20;;;;;;5051956;28;20041;-50
2021/09/01 11:31:43;;;;;;;5.43;2.50;;;22.90;63.20;;;;;;5050896;28;20032;-50
2021/09/01 11:34:14;;;;;;;5.43;2.45;;;22.90;63.20;;;;;;5051955;28;20029;-51
2021/09/01 11:36:41;;;;;;;4.20;2.50;;;22.90;63.20;;;;;;5051362;28;20082;-50
2021/09/01 11:39:07;;;;;;;3.28;2.20;;;23.00;63.10;;;;;;5056441;28;20025;-51
2021/09/01 11:41:33;;;;;;;3.83;2.50;;;23.00;63.10;;;;;;5050813;28;20100;-50
2021/09/01 11:44:01;;;;;;;5.50;2.40;;;23.00;63.10;;;;;;5051587;28;20037;-51
2021/09/01 11:46:32;;;;;;;5.95;3.25;;;23.00;63.10;;;;;;5050982;28;20036;-52
2021/09/01 11:49:06;;;;;;;4.60;2.33;;;23.00;63.10;;;;;;5050559;28;20063;-52
2021/09/01 11:51:32;;;;;;;3.90;2.65;;;23.00;63.00;;;;;;5051200;28;20471;-50
2021/09/01 11:53:59;;;;;;;4.60;3.00;;;23.00;63.00;;;;;;5051951;28;20025;-54
2021/09/01 11:56:26;;;;;;;4.97;2.65;;;23.00;63.10;;;;;;5051134;28;20108;-51
2021/09/01 11:58:56;;;;;;;5.25;2.58;;;23.00;63.40;;;;;;5051413;28;20029;-50
2021/09/01 12:01:22;;;;;;;3.58;2.60;;;23.00;64.20;;;;;;5051116;28;20053;-54
2021/09/01 12:03:48;;;;;;;4.60;2.60;;;23.00;64.20;;;;;;5051350;28;20037;-51
2021/09/01 12:06:14;;;;;;;6.38;3.17;;;23.00;64.50;;;;;;5051104;28;20491;-49
2021/09/01 12:08:41;;;;;;;3.97;2.40;;;23.00;64.50;;;;;;5055526;28;20028;-52
2021/09/01 12:11:07;;;;;;;4.18;3.00;;;23.00;65.40;;;;;;5051397;28;20086;-49
2021/09/01 12:13:44;;;;;;;4.28;2.75;;;23.00;67.00;;;;;;5049899;28;20033;-51
2021/09/01 12:16:11;;;;;;;5.28;3.00;;;23.00;66.80;;;;;;5051406;28;20025;-50
2021/09/01 12:18:53;;;;;;;5.72;3.28;;;23.00;66.70;;;;;;5050623;28;20064;-53
2021/09/01 12:21:20;;;;;;;4.32;2.75;;;23.00;67.40;;;;;;5050654;28;20032;-52
2021/09/01 12:24:06;;;;;;;4.75;2.75;;;22.90;67.60;;;;;;5050150;28;20029;-51
2021/09/01 12:26:32;;;;;;;3.70;2.72;;;22.90;67.80;;;;;;5050274;28;20360;-53
2021/09/01 12:28:57;;;;;;;4.40;2.85;;;22.90;68.50;;;;;;5050212;28;20047;-53
2021/09/01 12:31:24;;;;;;;5.15;2.90;;;22.90;68.10;;;;;;5050873;28;20402;-50
2021/09/01 12:33:51;;;;;;;3.63;2.38;;;22.90;67.90;;;;;;5049767;28;20021;-52
2021/09/01 12:36:25;;;;;;;5.53;3.00;;;22.90;68.50;;;;;;5050899;28;20035;-50
2021/09/01 12:38:52;;;;;;;5.10;3.00;;;22.90;68.30;;;;;;5053733;28;20057;-50
2021/09/01 12:41:19;;;;;;;3.90;2.67;;;22.90;68.80;;;;;;5050980;28;20478;-50
2021/09/01 12:43:46;;;;;;;4.70;3.35;;;22.90;68.30;;;;;;5050568;28;20033;-51
2021/09/01 12:46:12;;;;;;;4.65;3.03;;;22.90;68.00;;;;;;5050954;28;20040;-50
2021/09/01 12:48:41;;;;;;;4.40;2.75;;;22.90;67.80;;;;;;5050136;28;20467;-50
2021/09/01 12:51:10;;;;;;;4.32;2.70;;;23.00;67.60;;;;;;5050934;28;20052;-50
2021/09/01 12:53:36;;;;;;;5.10;3.15;;;23.00;67.40;;;;;;5049882;28;20108;-50